sensor_id;sensor_type;location;lat;lon;timestamp;P1;durP1;ratioP1;P2;durP2;ratioP2
68225;SDS011;55045;49.410;11.030;2022-12-18T00:01:16;95.40;;;35.90;;
68225;SDS011;55045;49.410;11.030;2022-12-18T00:04:31;92.85;;;33.20;;
68225;SDS011;55045;49.410;11.030;2022-12-18T00:07:45;82.13;;;33.67;;
68225;SDS011;55045;49.410;11.030;2022-12-18T00:10:53;93.95;;;36.10;;
68225;SDS011;55045;49.410;11.030;2022-12-18T00:14:03;77.05;;;33.25;;
68225;SDS011;55045;49.410;11.030;2022-12-18T00:17:09;83.30;;;33.55;;
68225;SDS011;55045;49.410;11.030;2022-12-18T00:20:15;83.85;;;34.60;;
68225;SDS011;55045;49.410;11.030;2022-12-18T00:23:27;81.85;;;33.22;;
68225;SDS011;55045;49.410;11.030;2022-12-18T00:30:04;88.30;;;31.90;;
68225;SDS011;55045;49.410;11.030;2022-12-18T00:33:17;129.00;;;42.17;;
68225;SDS011;55045;49.410;11.030;2022-12-18T00:36:22;92.05;;;37.90;;
68225;SDS011;55045;49.410;11.030;2022-12-18T00:39:32;78.57;;;31.95;;
68225;SDS011;55045;49.410;11.030;2022-12-18T00:42:43;84.57;;;31.30;;
68225;SDS011;55045;49.410;11.030;2022-12-18T00:46:04;100.53;;;36.78;;
68225;SDS011;55045;49.410;11.030;2022-12-18T00:49:10;79.68;;;32.60;;
68225;SDS011;55045;49.410;11.030;2022-12-18T00:52:18;87.47;;;34.40;;
68225;SDS011;55045;49.410;11.030;2022-12-18T00:55:26;89.43;;;35.63;;
68225;SDS011;55045;49.410;11.030;2022-12-18T00:58:34;80.70;;;32.03;;
68225;SDS011;55045;49.410;11.030;2022-12-18T01:01:54;81.68;;;30.70;;
68225;SDS011;55045;49.410;11.030;2022-12-18T01:05:08;94.22;;;32.10;;
68225;SDS011;55045;49.410;11.030;2022-12-18T01:08:13;106.78;;;35.40;;
68225;SDS011;55045;49.410;11.030;2022-12-18T01:11:23;95.25;;;32.67;;
68225;SDS011;55045;49.410;11.030;2022-12-18T01:14:28;127.00;;;40.20;;
68225;SDS011;55045;49.410;11.030;2022-12-18T01:17:39;108.72;;;34.40;;
68225;SDS011;55045;49.410;11.030;2022-12-18T01:20:53;108.10;;;35.60;;
68225;SDS011;55045;49.410;11.030;2022-12-18T01:24:12;115.18;;;35.15;;
68225;SDS011;55045;49.410;11.030;2022-12-18T01:27:16;92.82;;;28.88;;
68225;SDS011;55045;49.410;11.030;2022-12-18T01:30:30;101.10;;;29.10;;
68225;SDS011;55045;49.410;11.030;2022-12-18T01:33:41;123.55;;;36.17;;
68225;SDS011;55045;49.410;11.030;2022-12-18T01:36:50;95.20;;;32.05;;
68225;SDS011;55045;49.410;11.030;2022-12-18T01:39:55;89.72;;;29.77;;
68225;SDS011;55045;49.410;11.030;2022-12-18T01:43:08;112.55;;;32.67;;
68225;SDS011;55045;49.410;11.030;2022-12-18T01:46:21;109.85;;;35.50;;
68225;SDS011;55045;49.410;11.030;2022-12-18T01:49:36;116.85;;;31.75;;
68225;SDS011;55045;49.410;11.030;2022-12-18T01:52:48;58.95;;;23.40;;
68225;SDS011;55045;49.410;11.030;2022-12-18T01:55:55;80.15;;;26.60;;
68225;SDS011;55045;49.410;11.030;2022-12-18T01:59:03;71.20;;;24.20;;
68225;SDS011;55045;49.410;11.030;2022-12-18T02:02:17;59.60;;;19.58;;
68225;SDS011;55045;49.410;11.030;2022-12-18T02:05:25;81.35;;;23.67;;
68225;SDS011;55045;49.410;11.030;2022-12-18T02:08:46;73.20;;;23.67;;
68225;SDS011;55045;49.410;11.030;2022-12-18T02:12:04;58.50;;;18.88;;
68225;SDS011;55045;49.410;11.030;2022-12-18T02:15:26;68.32;;;24.17;;
68225;SDS011;55045;49.410;11.030;2022-12-18T02:18:44;61.50;;;21.00;;
68225;SDS011;55045;49.410;11.030;2022-12-18T02:25:24;50.13;;;20.85;;
68225;SDS011;55045;49.410;11.030;2022-12-18T02:28:53;83.85;;;27.88;;
68225;SDS011;55045;49.410;11.030;2022-12-18T02:32:03;87.60;;;27.98;;
68225;SDS011;55045;49.410;11.030;2022-12-18T02:35:25;79.38;;;26.80;;
68225;SDS011;55045;49.410;11.030;2022-12-18T02:38:39;60.42;;;21.90;;
68225;SDS011;55045;49.410;11.030;2022-12-18T02:41:51;53.03;;;18.35;;
68225;SDS011;55045;49.410;11.030;2022-12-18T02:45:07;68.55;;;20.67;;
68225;SDS011;55045;49.410;11.030;2022-12-18T02:48:16;75.28;;;26.30;;
68225;SDS011;55045;49.410;11.030;2022-12-18T02:51:27;60.10;;;22.40;;
68225;SDS011;55045;49.410;11.030;2022-12-18T02:54:49;73.13;;;21.40;;
68225;SDS011;55045;49.410;11.030;2022-12-18T02:58:03;75.82;;;22.45;;
68225;SDS011;55045;49.410;11.030;2022-12-18T03:01:19;78.35;;;25.67;;
68225;SDS011;55045;49.410;11.030;2022-12-18T03:04:34;59.63;;;20.23;;
68225;SDS011;55045;49.410;11.030;2022-12-18T03:07:57;67.97;;;22.52;;
68225;SDS011;55045;49.410;11.030;2022-12-18T03:11:12;64.25;;;23.48;;
68225;SDS011;55045;49.410;11.030;2022-12-18T03:14:18;77.68;;;26.40;;
68225;SDS011;55045;49.410;11.030;2022-12-18T03:17:40;71.55;;;22.85;;
68225;SDS011;55045;49.410;11.030;2022-12-18T03:20:53;79.10;;;25.30;;
68225;SDS011;55045;49.410;11.030;2022-12-18T03:24:09;82.35;;;25.73;;
68225;SDS011;55045;49.410;11.030;2022-12-18T03:27:21;69.22;;;20.48;;
68225;SDS011;55045;49.410;11.030;2022-12-18T03:30:33;67.75;;;22.92;;
68225;SDS011;55045;49.410;11.030;2022-12-18T03:33:57;68.32;;;21.83;;
68225;SDS011;55045;49.410;11.030;2022-12-18T03:40:25;61.25;;;22.80;;
68225;SDS011;55045;49.410;11.030;2022-12-18T03:43:43;67.40;;;21.38;;
68225;SDS011;55045;49.410;11.030;2022-12-18T03:47:03;50.05;;;18.15;;
68225;SDS011;55045;49.410;11.030;2022-12-18T03:50:16;65.35;;;21.70;;
68225;SDS011;55045;49.410;11.030;2022-12-18T03:54:30;76.53;;;24.17;;
68225;SDS011;55045;49.410;11.030;2022-12-18T03:57:43;70.43;;;23.65;;
68225;SDS011;55045;49.410;11.030;2022-12-18T04:00:56;80.57;;;26.80;;
68225;SDS011;55045;49.410;11.030;2022-12-18T04:04:13;85.07;;;29.13;;
68225;SDS011;55045;49.410;11.030;2022-12-18T04:10:54;78.40;;;26.77;;
68225;SDS011;55045;49.410;11.030;2022-12-18T04:14:01;86.72;;;28.65;;
68225;SDS011;55045;49.410;11.030;2022-12-18T04:17:13;88.25;;;28.52;;
68225;SDS011;55045;49.410;11.030;2022-12-18T04:20:31;75.05;;;28.70;;
68225;SDS011;55045;49.410;11.030;2022-12-18T04:23:50;79.18;;;26.17;;
68225;SDS011;55045;49.410;11.030;2022-12-18T04:27:13;82.32;;;28.95;;
68225;SDS011;55045;49.410;11.030;2022-12-18T04:30:22;77.72;;;26.75;;
68225;SDS011;55045;49.410;11.030;2022-12-18T04:34:45;82.90;;;28.05;;
68225;SDS011;55045;49.410;11.030;2022-12-18T04:37:57;82.35;;;27.48;;
68225;SDS011;55045;49.410;11.030;2022-12-18T04:41:11;77.60;;;25.55;;
68225;SDS011;55045;49.410;11.030;2022-12-18T04:44:21;85.07;;;28.42;;
68225;SDS011;55045;49.410;11.030;2022-12-18T04:47:32;70.15;;;24.95;;
68225;SDS011;55045;49.410;11.030;2022-12-18T04:50:52;72.20;;;24.30;;
68225;SDS011;55045;49.410;11.030;2022-12-18T04:54:09;76.82;;;25.45;;
68225;SDS011;55045;49.410;11.030;2022-12-18T04:57:13;78.65;;;28.33;;
68225;SDS011;55045;49.410;11.030;2022-12-18T05:00:29;78.10;;;24.75;;
68225;SDS011;55045;49.410;11.030;2022-12-18T05:03:35;62.45;;;18.98;;
68225;SDS011;55045;49.410;11.030;2022-12-18T05:06:46;51.10;;;19.38;;
68225;SDS011;55045;49.410;11.030;2022-12-18T05:10:02;55.75;;;19.00;;
68225;SDS011;55045;49.410;11.030;2022-12-18T05:13:17;55.92;;;19.55;;
68225;SDS011;55045;49.410;11.030;2022-12-18T05:16:32;62.67;;;17.85;;
68225;SDS011;55045;49.410;11.030;2022-12-18T05:19:43;44.90;;;18.70;;
68225;SDS011;55045;49.410;11.030;2022-12-18T05:23:06;41.67;;;14.75;;
68225;SDS011;55045;49.410;11.030;2022-12-18T05:26:19;63.88;;;21.65;;
68225;SDS011;55045;49.410;11.030;2022-12-18T05:29:33;52.17;;;16.58;;
68225;SDS011;55045;49.410;11.030;2022-12-18T05:32:42;45.20;;;16.23;;
68225;SDS011;55045;49.410;11.030;2022-12-18T05:35:49;54.30;;;16.90;;
68225;SDS011;55045;49.410;11.030;2022-12-18T05:39:06;53.00;;;17.10;;
68225;SDS011;55045;49.410;11.030;2022-12-18T05:42:15;56.20;;;20.30;;
68225;SDS011;55045;49.410;11.030;2022-12-18T05:45:23;59.60;;;20.70;;
68225;SDS011;55045;49.410;11.030;2022-12-18T05:48:28;58.53;;;18.58;;
68225;SDS011;55045;49.410;11.030;2022-12-18T05:51:32;57.42;;;21.10;;
68225;SDS011;55045;49.410;11.030;2022-12-18T05:54:51;44.28;;;17.60;;
68225;SDS011;55045;49.410;11.030;2022-12-18T05:58:03;58.17;;;18.90;;
68225;SDS011;55045;49.410;11.030;2022-12-18T06:01:21;46.78;;;15.95;;
68225;SDS011;55045;49.410;11.030;2022-12-18T06:04:40;39.72;;;14.48;;
68225;SDS011;55045;49.410;11.030;2022-12-18T06:07:48;51.63;;;20.40;;
68225;SDS011;55045;49.410;11.030;2022-12-18T06:10:56;51.80;;;17.52;;
68225;SDS011;55045;49.410;11.030;2022-12-18T06:14:02;35.83;;;14.65;;
68225;SDS011;55045;49.410;11.030;2022-12-18T06:17:13;60.63;;;18.80;;
68225;SDS011;55045;49.410;11.030;2022-12-18T06:20:18;32.33;;;12.35;;
68225;SDS011;55045;49.410;11.030;2022-12-18T06:23:38;61.67;;;19.20;;
68225;SDS011;55045;49.410;11.030;2022-12-18T06:26:47;49.78;;;17.75;;
68225;SDS011;55045;49.410;11.030;2022-12-18T06:29:52;37.53;;;13.30;;
68225;SDS011;55045;49.410;11.030;2022-12-18T06:33:02;49.15;;;15.55;;
68225;SDS011;55045;49.410;11.030;2022-12-18T06:36:11;49.30;;;17.15;;
68225;SDS011;55045;49.410;11.030;2022-12-18T06:39:26;50.20;;;17.35;;
68225;SDS011;55045;49.410;11.030;2022-12-18T06:42:50;34.72;;;11.65;;
68225;SDS011;55045;49.410;11.030;2022-12-18T06:46:08;46.88;;;16.60;;
68225;SDS011;55045;49.410;11.030;2022-12-18T06:49:28;33.40;;;13.95;;
68225;SDS011;55045;49.410;11.030;2022-12-18T06:52:44;39.95;;;15.55;;
68225;SDS011;55045;49.410;11.030;2022-12-18T06:55:49;52.15;;;16.52;;
68225;SDS011;55045;49.410;11.030;2022-12-18T07:02:10;50.20;;;16.63;;
68225;SDS011;55045;49.410;11.030;2022-12-18T07:05:20;32.30;;;11.65;;
68225;SDS011;55045;49.410;11.030;2022-12-18T07:08:38;35.55;;;12.85;;
68225;SDS011;55045;49.410;11.030;2022-12-18T07:11:45;37.43;;;12.83;;
68225;SDS011;55045;49.410;11.030;2022-12-18T07:14:58;31.05;;;10.65;;
68225;SDS011;55045;49.410;11.030;2022-12-18T07:18:10;37.60;;;12.68;;
68225;SDS011;55045;49.410;11.030;2022-12-18T07:21:33;24.98;;;10.00;;
68225;SDS011;55045;49.410;11.030;2022-12-18T07:24:43;34.05;;;14.25;;
68225;SDS011;55045;49.410;11.030;2022-12-18T07:27:56;33.80;;;12.48;;
68225;SDS011;55045;49.410;11.030;2022-12-18T07:31:09;16.67;;;5.75;;
68225;SDS011;55045;49.410;11.030;2022-12-18T07:34:24;35.10;;;11.38;;
68225;SDS011;55045;49.410;11.030;2022-12-18T07:37:34;30.38;;;10.70;;
68225;SDS011;55045;49.410;11.030;2022-12-18T07:40:43;37.63;;;15.38;;
68225;SDS011;55045;49.410;11.030;2022-12-18T07:43:50;33.20;;;11.82;;
68225;SDS011;55045;49.410;11.030;2022-12-18T07:47:04;42.40;;;12.35;;
68225;SDS011;55045;49.410;11.030;2022-12-18T07:50:19;38.47;;;13.00;;
68225;SDS011;55045;49.410;11.030;2022-12-18T07:53:23;41.20;;;13.60;;
68225;SDS011;55045;49.410;11.030;2022-12-18T07:56:37;45.25;;;14.25;;
68225;SDS011;55045;49.410;11.030;2022-12-18T07:59:47;42.55;;;15.90;;
68225;SDS011;55045;49.410;11.030;2022-12-18T08:02:59;31.70;;;10.80;;
68225;SDS011;55045;49.410;11.030;2022-12-18T08:06:23;35.35;;;10.30;;
68225;SDS011;55045;49.410;11.030;2022-12-18T08:09:37;36.03;;;12.50;;
68225;SDS011;55045;49.410;11.030;2022-12-18T08:12:49;34.65;;;14.32;;
68225;SDS011;55045;49.410;11.030;2022-12-18T08:16:08;34.60;;;12.60;;
68225;SDS011;55045;49.410;11.030;2022-12-18T08:19:16;28.70;;;9.40;;
68225;SDS011;55045;49.410;11.030;2022-12-18T08:22:24;36.08;;;13.52;;
68225;SDS011;55045;49.410;11.030;2022-12-18T08:25:45;41.10;;;13.18;;
68225;SDS011;55045;49.410;11.030;2022-12-18T08:28:58;32.30;;;11.43;;
68225;SDS011;55045;49.410;11.030;2022-12-18T08:32:22;21.15;;;7.15;;
68225;SDS011;55045;49.410;11.030;2022-12-18T08:35:35;32.60;;;10.18;;
68225;SDS011;55045;49.410;11.030;2022-12-18T08:38:47;29.95;;;9.63;;
68225;SDS011;55045;49.410;11.030;2022-12-18T08:41:54;37.22;;;15.07;;
68225;SDS011;55045;49.410;11.030;2022-12-18T08:45:19;32.72;;;12.73;;
68225;SDS011;55045;49.410;11.030;2022-12-18T08:48:23;37.33;;;12.48;;
68225;SDS011;55045;49.410;11.030;2022-12-18T08:51:39;24.70;;;10.48;;
68225;SDS011;55045;49.410;11.030;2022-12-18T08:54:51;40.97;;;13.85;;
68225;SDS011;55045;49.410;11.030;2022-12-18T08:58:07;28.63;;;10.43;;
68225;SDS011;55045;49.410;11.030;2022-12-18T09:01:17;52.67;;;21.55;;
68225;SDS011;55045;49.410;11.030;2022-12-18T09:04:24;39.90;;;14.65;;
68225;SDS011;55045;49.410;11.030;2022-12-18T09:07:39;25.88;;;11.27;;
68225;SDS011;55045;49.410;11.030;2022-12-18T09:10:46;32.07;;;12.57;;
68225;SDS011;55045;49.410;11.030;2022-12-18T09:13:57;25.70;;;10.43;;
68225;SDS011;55045;49.410;11.030;2022-12-18T09:17:05;35.60;;;13.60;;
68225;SDS011;55045;49.410;11.030;2022-12-18T09:20:09;27.80;;;11.68;;
68225;SDS011;55045;49.410;11.030;2022-12-18T09:23:15;28.70;;;10.93;;
68225;SDS011;55045;49.410;11.030;2022-12-18T09:26:19;28.02;;;10.05;;
68225;SDS011;55045;49.410;11.030;2022-12-18T09:29:23;16.58;;;6.68;;
68225;SDS011;55045;49.410;11.030;2022-12-18T09:32:26;26.60;;;10.27;;
68225;SDS011;55045;49.410;11.030;2022-12-18T09:35:32;35.53;;;13.48;;
68225;SDS011;55045;49.410;11.030;2022-12-18T09:38:40;29.95;;;10.55;;
68225;SDS011;55045;49.410;11.030;2022-12-18T09:41:45;22.67;;;8.00;;
68225;SDS011;55045;49.410;11.030;2022-12-18T09:44:58;33.35;;;12.52;;
68225;SDS011;55045;49.410;11.030;2022-12-18T09:48:08;40.15;;;14.68;;
68225;SDS011;55045;49.410;11.030;2022-12-18T09:51:18;23.45;;;8.88;;
68225;SDS011;55045;49.410;11.030;2022-12-18T09:54:32;36.10;;;13.10;;
68225;SDS011;55045;49.410;11.030;2022-12-18T09:57:39;31.70;;;12.40;;
68225;SDS011;55045;49.410;11.030;2022-12-18T10:00:52;28.23;;;11.15;;
68225;SDS011;55045;49.410;11.030;2022-12-18T10:04:07;29.40;;;11.38;;
68225;SDS011;55045;49.410;11.030;2022-12-18T10:07:20;30.08;;;11.85;;
68225;SDS011;55045;49.410;11.030;2022-12-18T10:10:38;30.23;;;13.55;;
68225;SDS011;55045;49.410;11.030;2022-12-18T10:14:07;30.02;;;13.25;;
68225;SDS011;55045;49.410;11.030;2022-12-18T10:17:23;68.25;;;24.52;;
68225;SDS011;55045;49.410;11.030;2022-12-18T10:20:34;46.03;;;23.40;;
68225;SDS011;55045;49.410;11.030;2022-12-18T10:23:49;28.73;;;12.30;;
68225;SDS011;55045;49.410;11.030;2022-12-18T10:27:09;34.95;;;12.63;;
68225;SDS011;55045;49.410;11.030;2022-12-18T10:30:18;29.05;;;13.68;;
68225;SDS011;55045;49.410;11.030;2022-12-18T10:34:40;34.92;;;15.38;;
68225;SDS011;55045;49.410;11.030;2022-12-18T10:38:00;30.55;;;12.82;;
68225;SDS011;55045;49.410;11.030;2022-12-18T10:41:23;32.03;;;12.65;;
68225;SDS011;55045;49.410;11.030;2022-12-18T10:44:32;39.15;;;15.73;;
68225;SDS011;55045;49.410;11.030;2022-12-18T10:47:43;38.72;;;14.02;;
68225;SDS011;55045;49.410;11.030;2022-12-18T10:50:52;36.30;;;14.53;;
68225;SDS011;55045;49.410;11.030;2022-12-18T10:54:14;33.83;;;12.45;;
68225;SDS011;55045;49.410;11.030;2022-12-18T10:57:30;32.80;;;13.30;;
68225;SDS011;55045;49.410;11.030;2022-12-18T11:00:37;34.53;;;13.90;;
68225;SDS011;55045;49.410;11.030;2022-12-18T11:03:42;40.17;;;15.07;;
68225;SDS011;55045;49.410;11.030;2022-12-18T11:06:56;37.42;;;15.60;;
68225;SDS011;55045;49.410;11.030;2022-12-18T11:10:03;33.65;;;11.80;;
68225;SDS011;55045;49.410;11.030;2022-12-18T11:16:18;37.95;;;15.05;;
68225;SDS011;55045;49.410;11.030;2022-12-18T11:19:28;34.58;;;11.75;;
68225;SDS011;55045;49.410;11.030;2022-12-18T11:22:36;30.40;;;12.38;;
68225;SDS011;55045;49.410;11.030;2022-12-18T11:25:41;35.20;;;13.80;;
68225;SDS011;55045;49.410;11.030;2022-12-18T11:29:07;32.60;;;13.77;;
68225;SDS011;55045;49.410;11.030;2022-12-18T11:32:21;32.08;;;12.02;;
68225;SDS011;55045;49.410;11.030;2022-12-18T11:35:35;35.35;;;13.27;;
68225;SDS011;55045;49.410;11.030;2022-12-18T11:38:54;31.30;;;11.40;;
68225;SDS011;55045;49.410;11.030;2022-12-18T11:42:05;42.50;;;15.13;;
68225;SDS011;55045;49.410;11.030;2022-12-18T11:45:28;42.25;;;15.50;;
68225;SDS011;55045;49.410;11.030;2022-12-18T11:48:37;34.95;;;13.85;;
68225;SDS011;55045;49.410;11.030;2022-12-18T11:51:48;27.50;;;10.80;;
68225;SDS011;55045;49.410;11.030;2022-12-18T11:54:58;35.45;;;13.25;;
68225;SDS011;55045;49.410;11.030;2022-12-18T11:58:07;33.58;;;11.35;;
68225;SDS011;55045;49.410;11.030;2022-12-18T12:01:27;30.35;;;11.32;;
68225;SDS011;55045;49.410;11.030;2022-12-18T12:04:48;28.58;;;9.85;;
68225;SDS011;55045;49.410;11.030;2022-12-18T12:08:05;28.42;;;10.98;;
68225;SDS011;55045;49.410;11.030;2022-12-18T12:11:21;33.47;;;12.05;;
68225;SDS011;55045;49.410;11.030;2022-12-18T12:14:37;37.92;;;13.90;;
68225;SDS011;55045;49.410;11.030;2022-12-18T12:17:50;29.63;;;12.60;;
68225;SDS011;55045;49.410;11.030;2022-12-18T12:24:56;34.38;;;13.43;;
68225;SDS011;55045;49.410;11.030;2022-12-18T12:28:15;29.73;;;12.30;;
68225;SDS011;55045;49.410;11.030;2022-12-18T12:31:35;25.48;;;9.73;;
68225;SDS011;55045;49.410;11.030;2022-12-18T12:34:54;26.92;;;12.52;;
68225;SDS011;55045;49.410;11.030;2022-12-18T12:38:13;28.25;;;11.05;;
68225;SDS011;55045;49.410;11.030;2022-12-18T12:41:22;36.88;;;13.75;;
68225;SDS011;55045;49.410;11.030;2022-12-18T12:44:51;33.95;;;14.32;;
68225;SDS011;55045;49.410;11.030;2022-12-18T12:47:58;31.27;;;11.82;;
68225;SDS011;55045;49.410;11.030;2022-12-18T12:51:09;27.05;;;10.00;;
68225;SDS011;55045;49.410;11.030;2022-12-18T12:54:28;22.15;;;9.32;;
68225;SDS011;55045;49.410;11.030;2022-12-18T12:57:56;30.77;;;11.23;;
68225;SDS011;55045;49.410;11.030;2022-12-18T13:01:12;35.33;;;12.60;;
68225;SDS011;55045;49.410;11.030;2022-12-18T13:04:27;29.90;;;11.15;;
68225;SDS011;55045;49.410;11.030;2022-12-18T13:07:39;32.75;;;12.35;;
68225;SDS011;55045;49.410;11.030;2022-12-18T13:10:49;36.95;;;14.00;;
68225;SDS011;55045;49.410;11.030;2022-12-18T13:14:22;40.33;;;13.52;;
68225;SDS011;55045;49.410;11.030;2022-12-18T13:17:30;27.98;;;10.60;;
68225;SDS011;55045;49.410;11.030;2022-12-18T13:20:36;34.00;;;12.73;;
68225;SDS011;55045;49.410;11.030;2022-12-18T13:23:49;36.72;;;13.63;;
68225;SDS011;55045;49.410;11.030;2022-12-18T13:27:58;33.45;;;14.25;;
68225;SDS011;55045;49.410;11.030;2022-12-18T13:31:08;36.13;;;14.93;;
68225;SDS011;55045;49.410;11.030;2022-12-18T13:34:18;29.33;;;11.35;;
68225;SDS011;55045;49.410;11.030;2022-12-18T13:37:42;35.47;;;14.63;;
68225;SDS011;55045;49.410;11.030;2022-12-18T13:41:21;32.22;;;14.05;;
68225;SDS011;55045;49.410;11.030;2022-12-18T13:44:36;32.33;;;13.73;;
68225;SDS011;55045;49.410;11.030;2022-12-18T13:47:42;29.77;;;12.40;;
68225;SDS011;55045;49.410;11.030;2022-12-18T13:50:59;33.28;;;10.80;;
68225;SDS011;55045;49.410;11.030;2022-12-18T13:54:17;32.67;;;14.15;;
68225;SDS011;55045;49.410;11.030;2022-12-18T13:57:33;35.27;;;12.00;;
68225;SDS011;55045;49.410;11.030;2022-12-18T14:00:44;31.77;;;11.85;;
68225;SDS011;55045;49.410;11.030;2022-12-18T14:04:08;38.22;;;14.35;;
68225;SDS011;55045;49.410;11.030;2022-12-18T14:07:22;40.40;;;15.77;;
68225;SDS011;55045;49.410;11.030;2022-12-18T14:10:36;33.38;;;13.70;;
68225;SDS011;55045;49.410;11.030;2022-12-18T14:13:53;38.90;;;15.77;;
68225;SDS011;55045;49.410;11.030;2022-12-18T14:17:03;31.77;;;12.90;;
68225;SDS011;55045;49.410;11.030;2022-12-18T14:20:16;33.90;;;13.50;;
68225;SDS011;55045;49.410;11.030;2022-12-18T14:23:41;30.80;;;14.05;;
68225;SDS011;55045;49.410;11.030;2022-12-18T14:27:02;35.60;;;14.68;;
68225;SDS011;55045;49.410;11.030;2022-12-18T14:37:04;37.33;;;15.13;;
68225;SDS011;55045;49.410;11.030;2022-12-18T14:40:13;35.42;;;14.13;;
68225;SDS011;55045;49.410;11.030;2022-12-18T14:43:23;35.33;;;14.95;;
68225;SDS011;55045;49.410;11.030;2022-12-18T14:46:38;33.65;;;14.27;;
68225;SDS011;55045;49.410;11.030;2022-12-18T14:49:53;33.33;;;14.48;;
68225;SDS011;55045;49.410;11.030;2022-12-18T14:53:05;37.92;;;15.18;;
68225;SDS011;55045;49.410;11.030;2022-12-18T14:56:32;38.05;;;15.00;;
68225;SDS011;55045;49.410;11.030;2022-12-18T14:59:55;44.25;;;18.23;;
68225;SDS011;55045;49.410;11.030;2022-12-18T15:03:12;51.55;;;19.90;;
68225;SDS011;55045;49.410;11.030;2022-12-18T15:06:32;68.82;;;32.42;;
68225;SDS011;55045;49.410;11.030;2022-12-18T15:10:09;43.38;;;18.90;;
68225;SDS011;55045;49.410;11.030;2022-12-18T15:13:21;44.40;;;19.55;;
68225;SDS011;55045;49.410;11.030;2022-12-18T15:16:35;33.78;;;16.52;;
68225;SDS011;55045;49.410;11.030;2022-12-18T15:20:02;37.00;;;15.38;;
68225;SDS011;55045;49.410;11.030;2022-12-18T15:23:33;41.45;;;16.08;;
68225;SDS011;55045;49.410;11.030;2022-12-18T15:26:54;33.88;;;14.23;;
68225;SDS011;55045;49.410;11.030;2022-12-18T15:30:21;37.80;;;15.40;;
68225;SDS011;55045;49.410;11.030;2022-12-18T15:33:32;39.22;;;17.15;;
68225;SDS011;55045;49.410;11.030;2022-12-18T15:36:50;36.45;;;16.00;;
68225;SDS011;55045;49.410;11.030;2022-12-18T15:40:20;35.63;;;15.15;;
68225;SDS011;55045;49.410;11.030;2022-12-18T15:43:26;33.95;;;14.20;;
68225;SDS011;55045;49.410;11.030;2022-12-18T15:46:43;34.63;;;13.13;;
68225;SDS011;55045;49.410;11.030;2022-12-18T15:49:46;35.08;;;13.30;;
68225;SDS011;55045;49.410;11.030;2022-12-18T15:52:57;27.17;;;10.98;;
68225;SDS011;55045;49.410;11.030;2022-12-18T15:56:09;27.02;;;10.27;;
68225;SDS011;55045;49.410;11.030;2022-12-18T15:59:34;38.17;;;13.40;;
68225;SDS011;55045;49.410;11.030;2022-12-18T16:02:54;31.37;;;11.50;;
68225;SDS011;55045;49.410;11.030;2022-12-18T16:06:07;40.38;;;15.15;;
68225;SDS011;55045;49.410;11.030;2022-12-18T16:09:20;56.38;;;19.00;;
68225;SDS011;55045;49.410;11.030;2022-12-18T16:12:52;49.33;;;18.70;;
68225;SDS011;55045;49.410;11.030;2022-12-18T16:15:58;38.00;;;12.68;;
68225;SDS011;55045;49.410;11.030;2022-12-18T16:19:11;44.03;;;17.52;;
68225;SDS011;55045;49.410;11.030;2022-12-18T16:22:28;40.67;;;16.45;;
68225;SDS011;55045;49.410;11.030;2022-12-18T16:25:36;60.00;;;23.30;;
68225;SDS011;55045;49.410;11.030;2022-12-18T16:28:56;55.22;;;24.83;;
68225;SDS011;55045;49.410;11.030;2022-12-18T16:34:46;40.70;;;19.00;;
68225;SDS011;55045;49.410;11.030;2022-12-18T16:37:59;45.22;;;18.75;;
68225;SDS011;55045;49.410;11.030;2022-12-18T16:41:15;46.15;;;16.17;;
68225;SDS011;55045;49.410;11.030;2022-12-18T16:44:57;36.38;;;13.88;;
68225;SDS011;55045;49.410;11.030;2022-12-18T16:48:07;46.47;;;18.15;;
68225;SDS011;55045;49.410;11.030;2022-12-18T16:51:20;43.10;;;15.63;;
68225;SDS011;55045;49.410;11.030;2022-12-18T16:54:29;47.65;;;19.70;;
68225;SDS011;55045;49.410;11.030;2022-12-18T16:57:35;44.13;;;18.85;;
68225;SDS011;55045;49.410;11.030;2022-12-18T17:00:49;40.60;;;15.90;;
68225;SDS011;55045;49.410;11.030;2022-12-18T17:04:02;48.10;;;18.83;;
68225;SDS011;55045;49.410;11.030;2022-12-18T17:07:18;48.75;;;18.27;;
68225;SDS011;55045;49.410;11.030;2022-12-18T17:10:21;42.20;;;14.43;;
68225;SDS011;55045;49.410;11.030;2022-12-18T17:13:29;43.88;;;16.92;;
68225;SDS011;55045;49.410;11.030;2022-12-18T17:16:33;53.92;;;18.70;;
68225;SDS011;55045;49.410;11.030;2022-12-18T17:19:41;35.47;;;14.73;;
68225;SDS011;55045;49.410;11.030;2022-12-18T17:23:08;44.50;;;17.85;;
68225;SDS011;55045;49.410;11.030;2022-12-18T17:26:31;50.60;;;19.70;;
68225;SDS011;55045;49.410;11.030;2022-12-18T17:30:04;43.30;;;18.30;;
68225;SDS011;55045;49.410;11.030;2022-12-18T17:33:12;49.90;;;17.77;;
68225;SDS011;55045;49.410;11.030;2022-12-18T17:36:18;30.10;;;12.85;;
68225;SDS011;55045;49.410;11.030;2022-12-18T17:39:23;49.88;;;19.17;;
68225;SDS011;55045;49.410;11.030;2022-12-18T17:42:51;48.00;;;18.95;;
68225;SDS011;55045;49.410;11.030;2022-12-18T17:46:03;57.95;;;20.38;;
68225;SDS011;55045;49.410;11.030;2022-12-18T17:49:26;51.17;;;16.60;;
68225;SDS011;55045;49.410;11.030;2022-12-18T17:52:45;59.38;;;21.90;;
68225;SDS011;55045;49.410;11.030;2022-12-18T17:56:14;65.00;;;27.50;;
68225;SDS011;55045;49.410;11.030;2022-12-18T17:59:40;62.42;;;26.02;;
68225;SDS011;55045;49.410;11.030;2022-12-18T18:03:02;48.35;;;19.77;;
68225;SDS011;55045;49.410;11.030;2022-12-18T18:06:22;45.88;;;17.90;;
68225;SDS011;55045;49.410;11.030;2022-12-18T18:09:29;43.85;;;20.75;;
68225;SDS011;55045;49.410;11.030;2022-12-18T18:12:36;52.90;;;21.73;;
68225;SDS011;55045;49.410;11.030;2022-12-18T18:16:04;43.70;;;20.90;;
68225;SDS011;55045;49.410;11.030;2022-12-18T18:19:09;49.88;;;19.17;;
68225;SDS011;55045;49.410;11.030;2022-12-18T18:22:29;47.20;;;19.27;;
68225;SDS011;55045;49.410;11.030;2022-12-18T18:25:41;47.78;;;19.77;;
68225;SDS011;55045;49.410;11.030;2022-12-18T18:28:50;61.33;;;20.25;;
68225;SDS011;55045;49.410;11.030;2022-12-18T18:31:56;51.65;;;20.75;;
68225;SDS011;55045;49.410;11.030;2022-12-18T18:35:07;42.40;;;17.92;;
68225;SDS011;55045;49.410;11.030;2022-12-18T18:38:48;35.00;;;16.67;;
68225;SDS011;55045;49.410;11.030;2022-12-18T18:42:16;46.25;;;20.48;;
68225;SDS011;55045;49.410;11.030;2022-12-18T18:45:36;56.70;;;22.13;;
68225;SDS011;55045;49.410;11.030;2022-12-18T18:48:48;57.78;;;22.15;;
68225;SDS011;55045;49.410;11.030;2022-12-18T18:52:03;48.17;;;18.83;;
68225;SDS011;55045;49.410;11.030;2022-12-18T18:55:10;50.78;;;19.88;;
68225;SDS011;55045;49.410;11.030;2022-12-18T18:58:29;50.35;;;17.77;;
68225;SDS011;55045;49.410;11.030;2022-12-18T19:01:48;53.88;;;21.60;;
68225;SDS011;55045;49.410;11.030;2022-12-18T19:05:12;48.90;;;17.90;;
68225;SDS011;55045;49.410;11.030;2022-12-18T19:08:25;59.55;;;23.15;;
68225;SDS011;55045;49.410;11.030;2022-12-18T19:11:41;41.17;;;16.60;;
68225;SDS011;55045;49.410;11.030;2022-12-18T19:15:08;54.28;;;21.55;;